sensor_id;sensor_type;location;lat;lon;timestamp;P1;durP1;ratioP1;P2;durP2;ratioP2
1378;SDS011;683;48.738;9.226;2022-12-07T00:00:53;12.70;;;9.33;;
1378;SDS011;683;48.738;9.226;2022-12-07T00:03:20;10.57;;;9.00;;
1378;SDS011;683;48.738;9.226;2022-12-07T00:05:47;12.37;;;9.30;;
1378;SDS011;683;48.738;9.226;2022-12-07T00:08:14;12.30;;;8.47;;
1378;SDS011;683;48.738;9.226;2022-12-07T00:10:43;10.57;;;8.70;;
1378;SDS011;683;48.738;9.226;2022-12-07T00:13:10;11.10;;;9.10;;
1378;SDS011;683;48.738;9.226;2022-12-07T00:15:37;11.07;;;8.00;;
1378;SDS011;683;48.738;9.226;2022-12-07T00:18:04;10.63;;;9.07;;
1378;SDS011;683;48.738;9.226;2022-12-07T00:20:32;12.93;;;9.30;;
1378;SDS011;683;48.738;9.226;2022-12-07T00:22:59;13.90;;;10.37;;
1378;SDS011;683;48.738;9.226;2022-12-07T00:25:26;12.70;;;9.73;;
1378;SDS011;683;48.738;9.226;2022-12-07T00:27:55;9.40;;;7.60;;
1378;SDS011;683;48.738;9.226;2022-12-07T00:30:22;9.50;;;7.47;;
1378;SDS011;683;48.738;9.226;2022-12-07T00:32:50;9.50;;;8.50;;
1378;SDS011;683;48.738;9.226;2022-12-07T00:35:17;13.10;;;9.73;;
1378;SDS011;683;48.738;9.226;2022-12-07T00:37:44;15.53;;;10.90;;
1378;SDS011;683;48.738;9.226;2022-12-07T00:40:12;13.57;;;9.77;;
1378;SDS011;683;48.738;9.226;2022-12-07T00:42:39;14.00;;;10.90;;
1378;SDS011;683;48.738;9.226;2022-12-07T00:45:08;9.07;;;8.10;;
1378;SDS011;683;48.738;9.226;2022-12-07T00:47:35;13.00;;;10.20;;
1378;SDS011;683;48.738;9.226;2022-12-07T00:50:03;14.90;;;10.80;;
1378;SDS011;683;48.738;9.226;2022-12-07T00:52:31;12.93;;;10.80;;
1378;SDS011;683;48.738;9.226;2022-12-07T00:54:58;11.90;;;10.20;;
1378;SDS011;683;48.738;9.226;2022-12-07T00:57:25;12.00;;;10.03;;
1378;SDS011;683;48.738;9.226;2022-12-07T00:59:52;15.43;;;12.70;;
1378;SDS011;683;48.738;9.226;2022-12-07T01:02:22;11.90;;;10.03;;
1378;SDS011;683;48.738;9.226;2022-12-07T01:04:49;16.47;;;11.33;;
1378;SDS011;683;48.738;9.226;2022-12-07T01:07:16;12.27;;;10.60;;
1378;SDS011;683;48.738;9.226;2022-12-07T01:09:43;13.93;;;12.20;;
1378;SDS011;683;48.738;9.226;2022-12-07T01:12:10;12.67;;;11.10;;
1378;SDS011;683;48.738;9.226;2022-12-07T01:14:38;13.33;;;10.80;;
1378;SDS011;683;48.738;9.226;2022-12-07T01:17:05;14.00;;;10.90;;
1378;SDS011;683;48.738;9.226;2022-12-07T01:19:33;13.50;;;12.10;;
1378;SDS011;683;48.738;9.226;2022-12-07T01:22:01;13.07;;;10.70;;
1378;SDS011;683;48.738;9.226;2022-12-07T01:24:28;13.23;;;10.67;;
1378;SDS011;683;48.738;9.226;2022-12-07T01:26:55;14.07;;;9.93;;
1378;SDS011;683;48.738;9.226;2022-12-07T01:29:22;11.87;;;10.07;;
1378;SDS011;683;48.738;9.226;2022-12-07T01:31:49;11.60;;;9.73;;
1378;SDS011;683;48.738;9.226;2022-12-07T01:34:16;15.47;;;10.97;;
1378;SDS011;683;48.738;9.226;2022-12-07T01:36:45;14.60;;;11.13;;
1378;SDS011;683;48.738;9.226;2022-12-07T01:39:13;14.30;;;11.20;;
1378;SDS011;683;48.738;9.226;2022-12-07T01:41:40;12.03;;;10.13;;
1378;SDS011;683;48.738;9.226;2022-12-07T01:44:13;13.90;;;9.67;;
1378;SDS011;683;48.738;9.226;2022-12-07T01:46:45;13.00;;;10.00;;
1378;SDS011;683;48.738;9.226;2022-12-07T01:49:16;14.47;;;10.33;;
1378;SDS011;683;48.738;9.226;2022-12-07T01:51:54;13.43;;;10.40;;
1378;SDS011;683;48.738;9.226;2022-12-07T01:54:27;17.47;;;11.77;;
1378;SDS011;683;48.738;9.226;2022-12-07T01:56:54;13.80;;;11.37;;
1378;SDS011;683;48.738;9.226;2022-12-07T01:59:24;11.87;;;10.60;;
1378;SDS011;683;48.738;9.226;2022-12-07T02:01:52;16.03;;;10.67;;
1378;SDS011;683;48.738;9.226;2022-12-07T02:04:21;14.60;;;10.47;;
1378;SDS011;683;48.738;9.226;2022-12-07T02:06:48;14.20;;;10.67;;
1378;SDS011;683;48.738;9.226;2022-12-07T02:09:19;15.20;;;10.50;;
1378;SDS011;683;48.738;9.226;2022-12-07T02:11:46;13.57;;;10.83;;
1378;SDS011;683;48.738;9.226;2022-12-07T02:14:14;12.80;;;11.00;;
1378;SDS011;683;48.738;9.226;2022-12-07T02:16:47;13.60;;;10.20;;
1378;SDS011;683;48.738;9.226;2022-12-07T02:22:35;14.53;;;11.37;;
1378;SDS011;683;48.738;9.226;2022-12-07T02:25:32;13.10;;;11.10;;
1378;SDS011;683;48.738;9.226;2022-12-07T02:28:12;12.87;;;9.83;;
1378;SDS011;683;48.738;9.226;2022-12-07T02:30:50;13.10;;;10.30;;
1378;SDS011;683;48.738;9.226;2022-12-07T02:33:22;15.83;;;11.63;;
1378;SDS011;683;48.738;9.226;2022-12-07T02:35:54;12.93;;;10.53;;
1378;SDS011;683;48.738;9.226;2022-12-07T02:38:26;13.57;;;10.70;;
1378;SDS011;683;48.738;9.226;2022-12-07T02:41:02;15.63;;;10.50;;
1378;SDS011;683;48.738;9.226;2022-12-07T02:43:35;14.50;;;10.13;;
1378;SDS011;683;48.738;9.226;2022-12-07T02:46:08;14.90;;;11.60;;
1378;SDS011;683;48.738;9.226;2022-12-07T02:48:37;13.53;;;10.50;;
1378;SDS011;683;48.738;9.226;2022-12-07T02:51:06;13.70;;;9.90;;
1378;SDS011;683;48.738;9.226;2022-12-07T02:53:34;17.53;;;12.07;;
1378;SDS011;683;48.738;9.226;2022-12-07T02:56:09;13.73;;;9.70;;
1378;SDS011;683;48.738;9.226;2022-12-07T02:58:48;15.53;;;10.40;;
1378;SDS011;683;48.738;9.226;2022-12-07T03:01:25;17.40;;;12.23;;
1378;SDS011;683;48.738;9.226;2022-12-07T03:04:00;13.93;;;10.90;;
1378;SDS011;683;48.738;9.226;2022-12-07T03:06:34;15.40;;;11.50;;
1378;SDS011;683;48.738;9.226;2022-12-07T03:09:07;15.03;;;11.57;;
1378;SDS011;683;48.738;9.226;2022-12-07T03:11:41;13.47;;;10.13;;
1378;SDS011;683;48.738;9.226;2022-12-07T03:14:15;12.83;;;10.03;;
1378;SDS011;683;48.738;9.226;2022-12-07T03:16:48;14.03;;;10.23;;
1378;SDS011;683;48.738;9.226;2022-12-07T03:19:19;13.50;;;9.97;;
1378;SDS011;683;48.738;9.226;2022-12-07T03:21:49;11.03;;;8.60;;
1378;SDS011;683;48.738;9.226;2022-12-07T03:24:22;11.20;;;9.60;;
1378;SDS011;683;48.738;9.226;2022-12-07T03:26:58;13.00;;;10.17;;
1378;SDS011;683;48.738;9.226;2022-12-07T03:29:30;12.90;;;10.20;;
1378;SDS011;683;48.738;9.226;2022-12-07T03:32:03;16.40;;;11.00;;
1378;SDS011;683;48.738;9.226;2022-12-07T03:34:36;14.73;;;11.03;;
1378;SDS011;683;48.738;9.226;2022-12-07T03:37:11;14.53;;;11.30;;
1378;SDS011;683;48.738;9.226;2022-12-07T03:39:44;13.07;;;11.17;;
1378;SDS011;683;48.738;9.226;2022-12-07T03:42:17;15.10;;;10.80;;
1378;SDS011;683;48.738;9.226;2022-12-07T03:44:44;14.07;;;11.07;;
1378;SDS011;683;48.738;9.226;2022-12-07T03:47:13;15.27;;;11.57;;
1378;SDS011;683;48.738;9.226;2022-12-07T03:49:51;14.73;;;11.77;;
1378;SDS011;683;48.738;9.226;2022-12-07T03:52:22;14.13;;;10.60;;
1378;SDS011;683;48.738;9.226;2022-12-07T03:54:53;16.50;;;11.60;;
1378;SDS011;683;48.738;9.226;2022-12-07T03:57:25;16.93;;;12.67;;
1378;SDS011;683;48.738;9.226;2022-12-07T03:59:54;15.37;;;11.33;;
1378;SDS011;683;48.738;9.226;2022-12-07T04:02:24;14.77;;;11.27;;
1378;SDS011;683;48.738;9.226;2022-12-07T04:04:53;13.30;;;10.10;;
1378;SDS011;683;48.738;9.226;2022-12-07T04:07:21;14.43;;;11.37;;
1378;SDS011;683;48.738;9.226;2022-12-07T04:09:48;15.97;;;10.90;;
1378;SDS011;683;48.738;9.226;2022-12-07T04:12:16;14.50;;;11.13;;
1378;SDS011;683;48.738;9.226;2022-12-07T04:14:43;13.27;;;11.10;;
1378;SDS011;683;48.738;9.226;2022-12-07T04:17:10;16.37;;;11.23;;
1378;SDS011;683;48.738;9.226;2022-12-07T04:19:39;14.80;;;10.30;;
1378;SDS011;683;48.738;9.226;2022-12-07T04:22:06;13.83;;;10.20;;
1378;SDS011;683;48.738;9.226;2022-12-07T04:24:34;11.37;;;9.63;;
1378;SDS011;683;48.738;9.226;2022-12-07T04:27:01;11.73;;;9.87;;
1378;SDS011;683;48.738;9.226;2022-12-07T04:29:29;13.67;;;10.63;;
1378;SDS011;683;48.738;9.226;2022-12-07T04:31:56;12.57;;;9.70;;
1378;SDS011;683;48.738;9.226;2022-12-07T04:34:23;10.53;;;9.23;;
1378;SDS011;683;48.738;9.226;2022-12-07T04:36:51;16.30;;;10.10;;
1378;SDS011;683;48.738;9.226;2022-12-07T04:39:20;14.17;;;10.13;;
1378;SDS011;683;48.738;9.226;2022-12-07T04:41:50;15.30;;;10.97;;
1378;SDS011;683;48.738;9.226;2022-12-07T04:44:17;14.40;;;10.10;;
1378;SDS011;683;48.738;9.226;2022-12-07T04:46:46;15.40;;;10.33;;
1378;SDS011;683;48.738;9.226;2022-12-07T04:49:13;15.07;;;10.70;;
1378;SDS011;683;48.738;9.226;2022-12-07T04:51:41;13.10;;;9.87;;
1378;SDS011;683;48.738;9.226;2022-12-07T04:54:10;7.73;;;6.23;;
1378;SDS011;683;48.738;9.226;2022-12-07T04:56:37;11.83;;;7.97;;
1378;SDS011;683;48.738;9.226;2022-12-07T04:59:05;9.93;;;7.50;;
1378;SDS011;683;48.738;9.226;2022-12-07T05:01:32;8.97;;;7.93;;
1378;SDS011;683;48.738;9.226;2022-12-07T05:04:00;9.83;;;6.80;;
1378;SDS011;683;48.738;9.226;2022-12-07T05:06:27;6.57;;;5.20;;
1378;SDS011;683;48.738;9.226;2022-12-07T05:08:55;6.87;;;5.63;;
1378;SDS011;683;48.738;9.226;2022-12-07T05:11:23;7.97;;;5.90;;
1378;SDS011;683;48.738;9.226;2022-12-07T05:14:07;7.27;;;5.57;;
1378;SDS011;683;48.738;9.226;2022-12-07T05:16:37;7.63;;;6.43;;
1378;SDS011;683;48.738;9.226;2022-12-07T05:19:06;5.60;;;5.03;;
1378;SDS011;683;48.738;9.226;2022-12-07T05:21:33;7.03;;;5.10;;
1378;SDS011;683;48.738;9.226;2022-12-07T05:24:01;8.70;;;6.23;;
1378;SDS011;683;48.738;9.226;2022-12-07T05:26:30;7.33;;;5.90;;
1378;SDS011;683;48.738;9.226;2022-12-07T05:28:57;6.33;;;5.40;;
1378;SDS011;683;48.738;9.226;2022-12-07T05:31:25;9.00;;;6.70;;
1378;SDS011;683;48.738;9.226;2022-12-07T05:33:53;6.33;;;4.73;;
1378;SDS011;683;48.738;9.226;2022-12-07T05:36:20;7.40;;;5.80;;
1378;SDS011;683;48.738;9.226;2022-12-07T05:38:48;7.60;;;6.00;;
1378;SDS011;683;48.738;9.226;2022-12-07T05:41:16;6.97;;;6.27;;
1378;SDS011;683;48.738;9.226;2022-12-07T05:44:15;7.27;;;6.30;;
1378;SDS011;683;48.738;9.226;2022-12-07T05:46:42;10.00;;;6.20;;
1378;SDS011;683;48.738;9.226;2022-12-07T05:49:09;7.93;;;6.13;;
1378;SDS011;683;48.738;9.226;2022-12-07T05:51:37;8.23;;;6.60;;
1378;SDS011;683;48.738;9.226;2022-12-07T05:54:04;6.80;;;5.30;;
1378;SDS011;683;48.738;9.226;2022-12-07T05:56:31;9.97;;;6.97;;
1378;SDS011;683;48.738;9.226;2022-12-07T05:58:58;8.30;;;6.00;;
1378;SDS011;683;48.738;9.226;2022-12-07T06:01:44;8.53;;;6.53;;
1378;SDS011;683;48.738;9.226;2022-12-07T06:04:12;9.70;;;7.30;;
1378;SDS011;683;48.738;9.226;2022-12-07T06:06:39;12.20;;;9.33;;
1378;SDS011;683;48.738;9.226;2022-12-07T06:09:06;13.30;;;9.50;;
1378;SDS011;683;48.738;9.226;2022-12-07T06:11:33;9.90;;;8.10;;
1378;SDS011;683;48.738;9.226;2022-12-07T06:14:18;11.73;;;9.30;;
1378;SDS011;683;48.738;9.226;2022-12-07T06:16:47;11.77;;;8.03;;
1378;SDS011;683;48.738;9.226;2022-12-07T06:19:14;12.00;;;8.80;;
1378;SDS011;683;48.738;9.226;2022-12-07T06:21:41;12.93;;;9.27;;
1378;SDS011;683;48.738;9.226;2022-12-07T06:24:09;9.97;;;8.20;;
1378;SDS011;683;48.738;9.226;2022-12-07T06:26:37;12.33;;;9.03;;
1378;SDS011;683;48.738;9.226;2022-12-07T06:29:05;11.13;;;8.90;;
1378;SDS011;683;48.738;9.226;2022-12-07T06:31:33;12.97;;;9.30;;
1378;SDS011;683;48.738;9.226;2022-12-07T06:34:11;13.63;;;8.80;;
1378;SDS011;683;48.738;9.226;2022-12-07T06:36:39;13.50;;;9.60;;
1378;SDS011;683;48.738;9.226;2022-12-07T06:39:07;9.43;;;8.27;;
1378;SDS011;683;48.738;9.226;2022-12-07T06:41:34;11.90;;;8.23;;
1378;SDS011;683;48.738;9.226;2022-12-07T06:44:02;11.20;;;9.20;;
1378;SDS011;683;48.738;9.226;2022-12-07T06:46:30;9.10;;;7.90;;
1378;SDS011;683;48.738;9.226;2022-12-07T06:48:57;11.07;;;7.60;;
1378;SDS011;683;48.738;9.226;2022-12-07T06:51:25;10.30;;;8.27;;
1378;SDS011;683;48.738;9.226;2022-12-07T06:53:53;10.40;;;7.60;;
1378;SDS011;683;48.738;9.226;2022-12-07T06:56:20;9.90;;;8.20;;
1378;SDS011;683;48.738;9.226;2022-12-07T06:58:48;11.53;;;8.20;;
1378;SDS011;683;48.738;9.226;2022-12-07T07:01:16;10.23;;;7.60;;
1378;SDS011;683;48.738;9.226;2022-12-07T07:03:44;12.47;;;8.43;;
1378;SDS011;683;48.738;9.226;2022-12-07T07:06:12;11.30;;;8.17;;
1378;SDS011;683;48.738;9.226;2022-12-07T07:08:41;10.17;;;7.63;;
1378;SDS011;683;48.738;9.226;2022-12-07T07:11:09;7.90;;;7.10;;
1378;SDS011;683;48.738;9.226;2022-12-07T07:13:38;11.57;;;7.80;;
1378;SDS011;683;48.738;9.226;2022-12-07T07:16:06;10.03;;;7.30;;
1378;SDS011;683;48.738;9.226;2022-12-07T07:18:34;10.23;;;7.07;;
1378;SDS011;683;48.738;9.226;2022-12-07T07:21:01;9.77;;;7.57;;
1378;SDS011;683;48.738;9.226;2022-12-07T07:23:29;8.70;;;7.13;;
1378;SDS011;683;48.738;9.226;2022-12-07T07:25:57;8.30;;;7.00;;
1378;SDS011;683;48.738;9.226;2022-12-07T07:28:24;10.43;;;7.63;;
1378;SDS011;683;48.738;9.226;2022-12-07T07:30:52;11.60;;;7.20;;
1378;SDS011;683;48.738;9.226;2022-12-07T07:33:19;8.10;;;7.20;;
1378;SDS011;683;48.738;9.226;2022-12-07T07:35:46;9.33;;;7.60;;
1378;SDS011;683;48.738;9.226;2022-12-07T07:38:14;10.40;;;7.33;;
1378;SDS011;683;48.738;9.226;2022-12-07T07:41:01;9.00;;;8.03;;
1378;SDS011;683;48.738;9.226;2022-12-07T07:43:28;10.47;;;7.73;;
1378;SDS011;683;48.738;9.226;2022-12-07T07:45:55;12.63;;;8.70;;
1378;SDS011;683;48.738;9.226;2022-12-07T07:48:23;14.30;;;8.20;;
1378;SDS011;683;48.738;9.226;2022-12-07T07:50:50;11.80;;;7.20;;
1378;SDS011;683;48.738;9.226;2022-12-07T07:53:17;8.77;;;7.87;;
1378;SDS011;683;48.738;9.226;2022-12-07T07:55:50;31.00;;;11.00;;
1378;SDS011;683;48.738;9.226;2022-12-07T07:58:20;14.23;;;10.50;;
1378;SDS011;683;48.738;9.226;2022-12-07T08:00:47;13.00;;;9.30;;
1378;SDS011;683;48.738;9.226;2022-12-07T08:03:14;10.47;;;7.90;;
1378;SDS011;683;48.738;9.226;2022-12-07T08:05:42;13.00;;;10.83;;
1378;SDS011;683;48.738;9.226;2022-12-07T08:08:09;15.40;;;8.83;;
1378;SDS011;683;48.738;9.226;2022-12-07T08:10:36;10.13;;;8.63;;
1378;SDS011;683;48.738;9.226;2022-12-07T08:13:04;12.43;;;10.07;;
1378;SDS011;683;48.738;9.226;2022-12-07T08:15:39;10.73;;;8.53;;
1378;SDS011;683;48.738;9.226;2022-12-07T08:18:07;12.17;;;8.80;;
1378;SDS011;683;48.738;9.226;2022-12-07T08:20:35;10.20;;;8.60;;
1378;SDS011;683;48.738;9.226;2022-12-07T08:23:04;11.40;;;8.70;;
1378;SDS011;683;48.738;9.226;2022-12-07T08:25:32;10.47;;;8.70;;
1378;SDS011;683;48.738;9.226;2022-12-07T08:27:59;12.97;;;10.00;;
1378;SDS011;683;48.738;9.226;2022-12-07T08:30:27;10.90;;;9.13;;
1378;SDS011;683;48.738;9.226;2022-12-07T08:32:56;12.83;;;9.33;;
1378;SDS011;683;48.738;9.226;2022-12-07T08:35:24;11.80;;;9.40;;
1378;SDS011;683;48.738;9.226;2022-12-07T08:37:51;10.80;;;8.70;;
1378;SDS011;683;48.738;9.226;2022-12-07T08:40:18;11.70;;;8.93;;
1378;SDS011;683;48.738;9.226;2022-12-07T08:42:48;13.20;;;10.00;;
1378;SDS011;683;48.738;9.226;2022-12-07T08:45:16;12.00;;;9.93;;
1378;SDS011;683;48.738;9.226;2022-12-07T08:47:45;9.37;;;7.90;;
1378;SDS011;683;48.738;9.226;2022-12-07T08:50:18;10.33;;;9.30;;
1378;SDS011;683;48.738;9.226;2022-12-07T08:52:47;12.00;;;9.97;;
1378;SDS011;683;48.738;9.226;2022-12-07T08:55:17;12.03;;;9.37;;
1378;SDS011;683;48.738;9.226;2022-12-07T08:57:46;13.60;;;9.30;;
1378;SDS011;683;48.738;9.226;2022-12-07T09:00:14;10.07;;;8.80;;
1378;SDS011;683;48.738;9.226;2022-12-07T09:02:42;10.27;;;8.70;;
1378;SDS011;683;48.738;9.226;2022-12-07T09:05:10;8.40;;;7.60;;
1378;SDS011;683;48.738;9.226;2022-12-07T09:07:41;11.37;;;8.70;;
1378;SDS011;683;48.738;9.226;2022-12-07T09:10:10;9.70;;;8.00;;
1378;SDS011;683;48.738;9.226;2022-12-07T09:12:37;8.93;;;7.67;;
1378;SDS011;683;48.738;9.226;2022-12-07T09:15:05;11.70;;;7.73;;
1378;SDS011;683;48.738;9.226;2022-12-07T09:17:33;11.83;;;8.83;;
1378;SDS011;683;48.738;9.226;2022-12-07T09:20:01;11.90;;;8.43;;
1378;SDS011;683;48.738;9.226;2022-12-07T09:22:29;13.20;;;8.53;;
1378;SDS011;683;48.738;9.226;2022-12-07T09:24:58;10.23;;;7.10;;
1378;SDS011;683;48.738;9.226;2022-12-07T09:27:25;10.67;;;7.83;;
1378;SDS011;683;48.738;9.226;2022-12-07T09:29:53;8.43;;;7.27;;
1378;SDS011;683;48.738;9.226;2022-12-07T09:32:21;7.63;;;6.03;;
1378;SDS011;683;48.738;9.226;2022-12-07T09:34:48;8.37;;;6.60;;
1378;SDS011;683;48.738;9.226;2022-12-07T09:37:15;11.40;;;7.33;;
1378;SDS011;683;48.738;9.226;2022-12-07T09:39:52;9.27;;;7.27;;
1378;SDS011;683;48.738;9.226;2022-12-07T09:42:27;7.70;;;6.23;;
1378;SDS011;683;48.738;9.226;2022-12-07T09:44:58;9.20;;;7.43;;
1378;SDS011;683;48.738;9.226;2022-12-07T09:47:35;8.40;;;6.70;;
1378;SDS011;683;48.738;9.226;2022-12-07T09:50:03;10.47;;;6.70;;
1378;SDS011;683;48.738;9.226;2022-12-07T09:52:32;12.10;;;6.07;;
1378;SDS011;683;48.738;9.226;2022-12-07T09:55:00;11.30;;;6.33;;
1378;SDS011;683;48.738;9.226;2022-12-07T09:57:31;9.00;;;6.60;;
1378;SDS011;683;48.738;9.226;2022-12-07T10:00:11;8.57;;;7.30;;
1378;SDS011;683;48.738;9.226;2022-12-07T10:03:03;7.63;;;5.30;;
1378;SDS011;683;48.738;9.226;2022-12-07T10:05:31;12.67;;;6.80;;
1378;SDS011;683;48.738;9.226;2022-12-07T10:08:02;8.83;;;6.33;;
1378;SDS011;683;48.738;9.226;2022-12-07T10:10:30;8.43;;;6.77;;
1378;SDS011;683;48.738;9.226;2022-12-07T10:13:04;7.90;;;6.27;;
1378;SDS011;683;48.738;9.226;2022-12-07T10:18:25;8.83;;;5.93;;
1378;SDS011;683;48.738;9.226;2022-12-07T10:21:05;6.30;;;5.70;;
1378;SDS011;683;48.738;9.226;2022-12-07T10:23:38;7.83;;;5.40;;
1378;SDS011;683;48.738;9.226;2022-12-07T10:26:20;9.70;;;5.10;;
1378;SDS011;683;48.738;9.226;2022-12-07T10:28:55;10.00;;;6.50;;
1378;SDS011;683;48.738;9.226;2022-12-07T10:31:25;5.30;;;4.23;;
1378;SDS011;683;48.738;9.226;2022-12-07T10:33:53;8.20;;;5.50;;
1378;SDS011;683;48.738;9.226;2022-12-07T10:36:22;7.27;;;5.90;;
1378;SDS011;683;48.738;9.226;2022-12-07T10:38:52;6.70;;;5.77;;
1378;SDS011;683;48.738;9.226;2022-12-07T10:41:26;5.93;;;5.33;;
1378;SDS011;683;48.738;9.226;2022-12-07T10:43:54;5.40;;;4.03;;
1378;SDS011;683;48.738;9.226;2022-12-07T10:46:45;6.63;;;4.67;;
1378;SDS011;683;48.738;9.226;2022-12-07T10:49:45;7.50;;;4.63;;
1378;SDS011;683;48.738;9.226;2022-12-07T10:55:34;7.80;;;5.83;;
1378;SDS011;683;48.738;9.226;2022-12-07T10:58:20;4.80;;;4.40;;
1378;SDS011;683;48.738;9.226;2022-12-07T11:01:01;5.13;;;4.07;;
1378;SDS011;683;48.738;9.226;2022-12-07T11:03:49;5.33;;;4.13;;
1378;SDS011;683;48.738;9.226;2022-12-07T11:06:31;5.77;;;4.07;;
1378;SDS011;683;48.738;9.226;2022-12-07T11:09:09;5.97;;;4.10;;
1378;SDS011;683;48.738;9.226;2022-12-07T11:11:52;4.30;;;3.90;;
1378;SDS011;683;48.738;9.226;2022-12-07T11:14:28;5.23;;;4.60;;
1378;SDS011;683;48.738;9.226;2022-12-07T11:17:05;4.60;;;3.60;;
1378;SDS011;683;48.738;9.226;2022-12-07T11:19:45;6.80;;;4.77;;
1378;SDS011;683;48.738;9.226;2022-12-07T11:22:20;4.70;;;4.23;;
1378;SDS011;683;48.738;9.226;2022-12-07T11:24:55;4.07;;;3.40;;
1378;SDS011;683;48.738;9.226;2022-12-07T11:27:32;7.03;;;3.73;;
1378;SDS011;683;48.738;9.226;2022-12-07T11:30:13;4.73;;;4.07;;
1378;SDS011;683;48.738;9.226;2022-12-07T11:32:53;5.00;;;3.87;;
1378;SDS011;683;48.738;9.226;2022-12-07T11:35:34;4.23;;;3.77;;
1378;SDS011;683;48.738;9.226;2022-12-07T11:38:09;5.97;;;4.80;;
1378;SDS011;683;48.738;9.226;2022-12-07T11:40:40;5.97;;;3.93;;
1378;SDS011;683;48.738;9.226;2022-12-07T11:43:13;7.70;;;3.80;;
1378;SDS011;683;48.738;9.226;2022-12-07T11:45:47;8.73;;;3.90;;
1378;SDS011;683;48.738;9.226;2022-12-07T11:48:24;4.23;;;3.77;;
1378;SDS011;683;48.738;9.226;2022-12-07T11:50:59;3.80;;;3.43;;
1378;SDS011;683;48.738;9.226;2022-12-07T11:53:29;6.37;;;4.43;;
1378;SDS011;683;48.738;9.226;2022-12-07T11:56:02;4.90;;;4.27;;
1378;SDS011;683;48.738;9.226;2022-12-07T11:58:42;5.40;;;3.93;;
1378;SDS011;683;48.738;9.226;2022-12-07T12:01:17;12.47;;;4.57;;
1378;SDS011;683;48.738;9.226;2022-12-07T12:04:00;5.10;;;3.90;;
1378;SDS011;683;48.738;9.226;2022-12-07T12:06:32;6.10;;;4.23;;
1378;SDS011;683;48.738;9.226;2022-12-07T12:09:02;5.50;;;4.03;;
1378;SDS011;683;48.738;9.226;2022-12-07T12:11:39;5.60;;;4.00;;
1378;SDS011;683;48.738;9.226;2022-12-07T12:14:26;5.83;;;4.33;;
1378;SDS011;683;48.738;9.226;2022-12-07T12:20:00;4.07;;;3.60;;
1378;SDS011;683;48.738;9.226;2022-12-07T12:22:33;3.57;;;3.27;;
1378;SDS011;683;48.738;9.226;2022-12-07T12:25:05;7.20;;;4.50;;
1378;SDS011;683;48.738;9.226;2022-12-07T12:27:38;4.57;;;4.17;;
1378;SDS011;683;48.738;9.226;2022-12-07T12:30:07;5.50;;;5.00;;
1378;SDS011;683;48.738;9.226;2022-12-07T12:32:53;5.07;;;4.10;;
1378;SDS011;683;48.738;9.226;2022-12-07T12:35:32;4.30;;;3.90;;
1378;SDS011;683;48.738;9.226;2022-12-07T12:40:50;7.77;;;4.27;;
1378;SDS011;683;48.738;9.226;2022-12-07T12:46:38;5.40;;;4.70;;
1378;SDS011;683;48.738;9.226;2022-12-07T12:49:32;5.37;;;4.57;;
1378;SDS011;683;48.738;9.226;2022-12-07T12:55:18;5.17;;;4.67;;
1378;SDS011;683;48.738;9.226;2022-12-07T13:04:27;9.90;;;6.47;;
1378;SDS011;683;48.738;9.226;2022-12-07T13:07:01;7.03;;;5.80;;
1378;SDS011;683;48.738;9.226;2022-12-07T13:09:29;8.90;;;7.03;;
1378;SDS011;683;48.738;9.226;2022-12-07T13:12:03;6.73;;;6.03;;
1378;SDS011;683;48.738;9.226;2022-12-07T13:14:54;6.83;;;5.80;;
1378;SDS011;683;48.738;9.226;2022-12-07T13:23:31;6.90;;;6.20;;
1378;SDS011;683;48.738;9.226;2022-12-07T13:26:11;12.33;;;5.80;;
1378;SDS011;683;48.738;9.226;2022-12-07T13:28:44;5.27;;;4.77;;
1378;SDS011;683;48.738;9.226;2022-12-07T13:31:14;5.13;;;4.70;;
1378;SDS011;683;48.738;9.226;2022-12-07T13:33:49;6.90;;;6.30;;
1378;SDS011;683;48.738;9.226;2022-12-07T13:36:21;5.90;;;5.40;;
1378;SDS011;683;48.738;9.226;2022-12-07T13:38:51;12.37;;;6.00;;
1378;SDS011;683;48.738;9.226;2022-12-07T13:41:20;6.63;;;5.97;;
1378;SDS011;683;48.738;9.226;2022-12-07T13:43:51;9.00;;;5.30;;
1378;SDS011;683;48.738;9.226;2022-12-07T13:46:24;6.33;;;5.40;;
1378;SDS011;683;48.738;9.226;2022-12-07T13:48:57;5.13;;;4.63;;
1378;SDS011;683;48.738;9.226;2022-12-07T13:51:25;8.50;;;5.53;;
1378;SDS011;683;48.738;9.226;2022-12-07T13:53:55;5.60;;;4.13;;
1378;SDS011;683;48.738;9.226;2022-12-07T13:56:31;5.13;;;4.60;;
1378;SDS011;683;48.738;9.226;2022-12-07T13:59:03;5.00;;;4.07;;
1378;SDS011;683;48.738;9.226;2022-12-07T14:01:32;5.23;;;4.23;;
1378;SDS011;683;48.738;9.226;2022-12-07T14:06:47;4.93;;;4.33;;
1378;SDS011;683;48.738;9.226;2022-12-07T14:09:17;3.80;;;3.50;;
1378;SDS011;683;48.738;9.226;2022-12-07T14:11:45;3.80;;;3.43;;
1378;SDS011;683;48.738;9.226;2022-12-07T14:14:18;4.83;;;3.30;;
1378;SDS011;683;48.738;9.226;2022-12-07T14:16:57;10.80;;;6.77;;
1378;SDS011;683;48.738;9.226;2022-12-07T14:19:43;7.40;;;5.37;;
1378;SDS011;683;48.738;9.226;2022-12-07T14:22:20;4.20;;;3.80;;
1378;SDS011;683;48.738;9.226;2022-12-07T14:25:15;4.20;;;3.50;;
1378;SDS011;683;48.738;9.226;2022-12-07T14:27:49;4.97;;;3.80;;
1378;SDS011;683;48.738;9.226;2022-12-07T14:30:24;4.70;;;4.13;;
1378;SDS011;683;48.738;9.226;2022-12-07T14:32:53;4.43;;;4.00;;
1378;SDS011;683;48.738;9.226;2022-12-07T14:35:23;4.50;;;4.10;;
1378;SDS011;683;48.738;9.226;2022-12-07T14:37:50;4.70;;;4.00;;
1378;SDS011;683;48.738;9.226;2022-12-07T14:40:18;6.77;;;3.80;;
1378;SDS011;683;48.738;9.226;2022-12-07T14:42:48;4.13;;;3.27;;
1378;SDS011;683;48.738;9.226;2022-12-07T14:45:21;4.47;;;3.87;;
1378;SDS011;683;48.738;9.226;2022-12-07T14:47:51;4.30;;;3.90;;
1378;SDS011;683;48.738;9.226;2022-12-07T14:50:19;4.47;;;4.07;;
1378;SDS011;683;48.738;9.226;2022-12-07T14:52:48;5.10;;;4.13;;
1378;SDS011;683;48.738;9.226;2022-12-07T14:55:20;5.67;;;3.20;;
1378;SDS011;683;48.738;9.226;2022-12-07T14:57:50;4.37;;;3.50;;
1378;SDS011;683;48.738;9.226;2022-12-07T15:00:18;3.57;;;3.23;;
1378;SDS011;683;48.738;9.226;2022-12-07T15:02:48;5.33;;;3.63;;
1378;SDS011;683;48.738;9.226;2022-12-07T15:05:16;4.40;;;4.00;;
1378;SDS011;683;48.738;9.226;2022-12-07T15:07:44;4.90;;;3.77;;
1378;SDS011;683;48.738;9.226;2022-12-07T15:10:13;5.40;;;4.40;;
1378;SDS011;683;48.738;9.226;2022-12-07T15:12:43;4.07;;;3.73;;
1378;SDS011;683;48.738;9.226;2022-12-07T15:15:11;4.57;;;3.73;;
1378;SDS011;683;48.738;9.226;2022-12-07T15:17:38;5.77;;;4.40;;
1378;SDS011;683;48.738;9.226;2022-12-07T15:20:09;7.40;;;5.20;;
1378;SDS011;683;48.738;9.226;2022-12-07T15:22:38;4.70;;;4.30;;
1378;SDS011;683;48.738;9.226;2022-12-07T15:25:06;7.93;;;4.73;;
1378;SDS011;683;48.738;9.226;2022-12-07T15:27:34;5.27;;;4.77;;
1378;SDS011;683;48.738;9.226;2022-12-07T15:30:02;6.40;;;5.07;;
1378;SDS011;683;48.738;9.226;2022-12-07T15:32:31;6.20;;;5.00;;
1378;SDS011;683;48.738;9.226;2022-12-07T15:34:58;6.13;;;4.80;;
1378;SDS011;683;48.738;9.226;2022-12-07T15:37:26;6.73;;;5.60;;
1378;SDS011;683;48.738;9.226;2022-12-07T15:39:54;4.70;;;4.30;;
1378;SDS011;683;48.738;9.226;2022-12-07T15:42:21;14.13;;;5.40;;
1378;SDS011;683;48.738;9.226;2022-12-07T15:44:48;6.37;;;5.63;;
1378;SDS011;683;48.738;9.226;2022-12-07T15:47:29;5.87;;;5.27;;
1378;SDS011;683;48.738;9.226;2022-12-07T15:49:57;7.73;;;5.70;;
1378;SDS011;683;48.738;9.226;2022-12-07T15:52:24;5.53;;;4.93;;
1378;SDS011;683;48.738;9.226;2022-12-07T15:54:52;6.20;;;5.20;;
1378;SDS011;683;48.738;9.226;2022-12-07T15:57:20;7.43;;;4.50;;
1378;SDS011;683;48.738;9.226;2022-12-07T15:59:47;6.40;;;5.27;;
1378;SDS011;683;48.738;9.226;2022-12-07T16:02:14;5.73;;;5.13;;
1378;SDS011;683;48.738;9.226;2022-12-07T16:04:42;7.10;;;5.60;;
1378;SDS011;683;48.738;9.226;2022-12-07T16:07:09;6.27;;;4.67;;
1378;SDS011;683;48.738;9.226;2022-12-07T16:09:39;8.13;;;5.37;;
1378;SDS011;683;48.738;9.226;2022-12-07T16:12:08;7.30;;;5.63;;
1378;SDS011;683;48.738;9.226;2022-12-07T16:14:36;6.00;;;5.30;;
1378;SDS011;683;48.738;9.226;2022-12-07T16:17:03;6.97;;;6.00;;
1378;SDS011;683;48.738;9.226;2022-12-07T16:19:31;7.60;;;6.63;;